Time;durP1;ratioP1;P1;durP2;ratioP2;P2;SDS_P1;SDS_P2;PMS_P1;PMS_P2;Temp;Humidity;BMP_temperature;BMP_pressure;BME280_temperature;BME280_humidity;BME280_pressure;Samples;Min_cycle;Max_cycle;Signal;HPM_P1;HPM_P2
2021/11/24 00:00:53;;;;;;;18.73;12.95;;;;;;;-3.41;100.00;96616.34;5011098;28;24420;-73
2021/11/24 00:03:21;;;;;;;17.50;11.90;;;;;;;-3.44;100.00;96618.84;5011003;28;24517;-73
2021/11/24 00:05:47;;;;;;;14.20;9.55;;;;;;;-3.43;100.00;96613.78;5010454;28;24423;-73
2021/11/24 00:08:14;;;;;;;13.77;10.43;;;;;;;-3.49;100.00;96606.16;5010982;28;24508;-73
2021/11/24 00:10:40;;;;;;;16.95;10.57;;;;;;;-3.47;100.00;96609.53;5011198;28;24428;-73
2021/11/24 00:13:07;;;;;;;15.57;12.00;;;;;;;-3.32;100.00;96603.72;5010821;28;24432;-73
2021/11/24 00:15:34;;;;;;;22.80;12.13;;;;;;;-3.25;100.00;96607.97;5010493;28;24779;-73
2021/11/24 00:18:01;;;;;;;16.67;11.45;;;;;;;-3.42;100.00;96612.09;5010792;28;24441;-73
2021/11/24 00:20:29;;;;;;;21.25;12.25;;;;;;;-3.48;100.00;96614.63;5010783;28;24439;-73
2021/11/24 00:22:55;;;;;;;17.43;11.97;;;;;;;-3.51;100.00;96604.47;5010757;28;24435;-73
2021/11/24 00:25:22;;;;;;;16.00;11.63;;;;;;;-3.39;100.00;96606.22;5010513;28;24436;-73
2021/11/24 00:27:48;;;;;;;21.77;13.20;;;;;;;-3.27;100.00;96609.63;5010389;28;24432;-73
2021/11/24 00:30:15;;;;;;;22.30;13.32;;;;;;;-3.20;100.00;96605.44;5013246;28;24429;-73
2021/11/24 00:32:42;;;;;;;14.25;10.95;;;;;;;-3.16;100.00;96604.63;5014790;28;24474;-73
2021/11/24 00:35:09;;;;;;;21.80;11.70;;;;;;;-3.17;100.00;96613.06;5014375;28;24950;-73
2021/11/24 00:37:37;;;;;;;20.17;10.65;;;;;;;-3.21;100.00;96606.28;5014405;28;24471;-73
2021/11/24 00:40:04;;;;;;;15.38;10.80;;;;;;;-3.22;100.00;96610.53;5014416;28;24790;-73
2021/11/24 00:42:31;;;;;;;12.20;9.63;;;;;;;-3.20;100.00;96610.50;5014599;28;24427;-73
2021/11/24 00:44:57;;;;;;;15.23;9.98;;;;;;;-3.23;100.00;96607.97;5014424;28;24482;-74
2021/11/24 00:47:24;;;;;;;16.73;9.65;;;;;;;-3.26;100.00;96606.28;5014761;28;24427;-73
2021/11/24 00:49:50;;;;;;;11.27;8.57;;;;;;;-3.21;100.00;96598.69;5014425;28;24432;-73
2021/11/24 00:52:17;;;;;;;12.98;9.48;;;;;;;-3.37;100.00;96609.56;5014268;28;24413;-73
2021/11/24 00:54:45;;;;;;;17.90;12.10;;;;;;;-3.35;100.00;96593.56;5014208;28;24416;-74
2021/11/24 00:57:11;;;;;;;14.43;10.23;;;;;;;-3.39;100.00;96596.09;5014190;28;24428;-73
2021/11/24 00:59:38;;;;;;;10.52;8.35;;;;;;;-3.41;100.00;96593.56;5014457;28;24431;-73
2021/11/24 01:02:04;;;;;;;11.77;9.20;;;;;;;-3.45;100.00;96595.22;5014183;28;24428;-73
2021/11/24 01:04:31;;;;;;;14.50;8.57;;;;;;;-3.46;100.00;96592.66;5014085;28;24418;-74
2021/11/24 01:06:57;;;;;;;12.93;9.30;;;;;;;-3.48;100.00;96590.13;5013587;28;24429;-74
2021/11/24 01:09:24;;;;;;;12.63;8.30;;;;;;;-3.49;100.00;96595.19;5013939;28;24420;-73
2021/11/24 01:11:52;;;;;;;12.32;8.65;;;;;;;-3.42;100.00;96596.91;5014111;28;24522;-73
2021/11/24 01:14:19;;;;;;;12.57;9.23;;;;;;;-3.46;100.00;96590.97;5014125;28;24429;-73
2021/11/24 01:16:45;;;;;;;15.85;9.07;;;;;;;-3.50;100.00;96590.97;5013818;28;24432;-73
2021/11/24 01:19:12;;;;;;;10.98;8.13;;;;;;;-3.62;100.00;96590.91;5013687;28;24476;-74
2021/11/24 01:21:39;;;;;;;10.88;8.48;;;;;;;-3.58;100.00;96592.59;5013101;28;24432;-73
2021/11/24 01:24:06;;;;;;;11.52;8.23;;;;;;;-3.62;100.00;96589.22;5013572;28;24490;-73
2021/11/24 01:26:32;;;;;;;10.93;8.57;;;;;;;-3.59;100.00;96594.31;5013492;28;24439;-73
2021/11/24 01:29:00;;;;;;;15.93;8.52;;;;;;;-3.59;100.00;96584.16;5013461;28;24416;-73
2021/11/24 01:31:26;;;;;;;9.23;7.87;;;;;;;-3.64;100.00;96590.88;5013647;28;24432;-74
2021/11/24 01:33:53;;;;;;;9.90;8.15;;;;;;;-3.70;100.00;96585.78;5013342;28;24429;-73
2021/11/24 01:36:19;;;;;;;12.85;8.65;;;;;;;-3.73;100.00;96588.31;5012135;28;24439;-73
2021/11/24 01:38:46;;;;;;;13.15;8.88;;;;;;;-3.70;100.00;96584.09;5013803;28;24448;-73
2021/11/24 01:41:13;;;;;;;12.93;9.05;;;;;;;-3.64;100.00;96585.81;5012635;28;24424;-73
2021/11/24 01:43:40;;;;;;;10.10;7.90;;;;;;;-3.61;100.00;96585.84;5012611;28;24436;-73
2021/11/24 01:46:08;;;;;;;12.05;8.18;;;;;;;-3.73;100.00;96586.63;5012828;28;24440;-73
2021/11/24 01:48:34;;;;;;;13.83;7.97;;;;;;;-3.91;100.00;96581.44;5013243;28;24421;-73
2021/11/24 01:51:01;;;;;;;12.82;8.60;;;;;;;-3.87;100.00;96578.09;5013045;28;24834;-73
2021/11/24 01:53:28;;;;;;;14.45;9.50;;;;;;;-3.84;100.00;96578.13;5013118;28;24459;-73
2021/11/24 01:55:56;;;;;;;12.88;9.40;;;;;;;-3.77;100.00;96579.84;5012805;28;24536;-73
2021/11/24 01:58:23;;;;;;;10.43;8.30;;;;;;;-3.67;100.00;96583.25;5012943;28;25066;-73
2021/11/24 02:00:49;;;;;;;9.50;7.63;;;;;;;-3.72;100.00;96577.34;5013019;28;24423;-73
2021/11/24 02:03:17;;;;;;;8.75;6.88;;;;;;;-3.81;100.00;96572.22;5012866;28;24448;-73
2021/11/24 02:05:44;;;;;;;13.65;8.50;;;;;;;-3.89;100.00;96567.13;5012540;28;24429;-73
2021/11/24 02:08:11;;;;;;;13.55;8.48;;;;;;;-3.73;100.00;96568.91;5013084;28;24479;-73
2021/11/24 02:10:37;;;;;;;18.52;8.23;;;;;;;-3.72;100.00;96555.41;5012974;28;24435;-73
2021/11/24 02:13:04;;;;;;;10.52;6.82;;;;;;;-3.68;100.00;96558.78;5012828;28;24416;-73
2021/11/24 02:15:30;;;;;;;10.23;6.90;;;;;;;-3.82;100.00;96566.31;5012195;28;24439;-73
2021/11/24 02:18:02;;;;;;;9.05;6.88;;;;;;;-3.81;99.84;96565.47;5012363;28;24456;-73
2021/11/24 02:20:41;;;;;;;9.45;6.68;;;;;;;-4.02;100.00;96557.75;5012936;28;24491;-73
2021/11/24 02:23:10;;;;;;;9.07;6.13;;;;;;;-4.08;100.00;96560.22;5012724;28;24426;-73
2021/11/24 02:25:37;;;;;;;10.48;7.18;;;;;;;-4.16;100.00;96553.44;5012187;28;24799;-73
2021/11/24 02:28:04;;;;;;;11.20;6.80;;;;;;;-4.17;100.00;96549.22;5012391;28;24985;-73
2021/11/24 02:30:31;;;;;;;9.32;6.90;;;;;;;-4.07;100.00;96536.66;5012172;28;24416;-73
2021/11/24 02:32:58;;;;;;;9.10;6.78;;;;;;;-4.03;100.00;96538.34;5012661;28;24420;-73
2021/11/24 02:35:24;;;;;;;10.23;7.20;;;;;;;-3.95;100.00;96540.09;5012196;28;24486;-73
2021/11/24 02:37:52;;;;;;;11.13;7.53;;;;;;;-3.92;100.00;96536.72;5012300;28;25015;-73
2021/11/24 02:40:19;;;;;;;12.88;8.50;;;;;;;-3.78;100.00;96537.66;5012412;28;24607;-74
2021/11/24 02:42:45;;;;;;;13.32;8.77;;;;;;;-3.81;100.00;96537.63;5012179;28;24527;-73
2021/11/24 02:45:12;;;;;;;12.40;7.90;;;;;;;-3.90;100.00;96529.97;5011742;28;24424;-73
2021/11/24 02:47:39;;;;;;;13.52;8.60;;;;;;;-3.88;100.00;96530.84;5012237;28;24448;-73
2021/11/24 02:50:07;;;;;;;10.82;8.30;;;;;;;-3.90;100.00;96532.50;5012237;28;24424;-73
2021/11/24 02:52:34;;;;;;;11.65;8.00;;;;;;;-3.92;100.00;96522.41;5012318;28;24535;-73
2021/11/24 02:55:05;;;;;;;9.93;7.55;;;;;;;-3.97;100.00;96521.53;5011067;28;24518;-73
2021/11/24 02:57:33;;;;;;;12.15;8.43;;;;;;;-3.95;100.00;96517.31;5011659;28;24527;-73
2021/11/24 03:00:00;;;;;;;13.57;8.57;;;;;;;-3.90;100.00;96509.72;5011979;28;24466;-73
2021/11/24 03:02:27;;;;;;;18.08;11.00;;;;;;;-3.96;100.00;96508.03;5011972;28;24532;-73
2021/11/24 03:04:55;;;;;;;12.38;9.02;;;;;;;-3.98;100.00;96513.91;5011823;28;24424;-73
2021/11/24 03:07:21;;;;;;;17.35;11.13;;;;;;;-3.97;100.00;96502.94;5011589;28;24807;-73
2021/11/24 03:09:52;;;;;;;16.27;10.02;;;;;;;-3.92;100.00;96508.91;5011476;28;24854;-73
2021/11/24 03:12:20;;;;;;;16.27;10.65;;;;;;;-4.01;100.00;96499.56;5011581;28;24430;-73
2021/11/24 03:14:46;;;;;;;12.00;8.63;;;;;;;-4.00;100.00;96503.81;5011708;28;24799;-73
2021/11/24 03:17:13;;;;;;;13.95;8.90;;;;;;;-3.94;100.00;96498.75;5010697;28;24814;-73
2021/11/24 03:19:39;;;;;;;14.18;9.20;;;;;;;-4.01;100.00;96497.03;5011291;28;24858;-73
2021/11/24 03:22:06;;;;;;;11.95;8.48;;;;;;;-4.13;100.00;96491.91;5011602;28;24783;-73
2021/11/24 03:24:32;;;;;;;12.05;8.00;;;;;;;-4.14;100.00;96497.81;5011629;28;24420;-73
2021/11/24 03:26:59;;;;;;;9.30;7.07;;;;;;;-4.14;100.00;96496.13;5010858;28;24879;-73
2021/11/24 03:29:27;;;;;;;12.67;7.80;;;;;;;-4.08;100.00;96486.88;5006722;28;24468;-73
2021/11/24 03:31:53;;;;;;;12.07;7.88;;;;;;;-4.14;100.00;96493.59;5011246;28;24508;-73
2021/11/24 03:34:20;;;;;;;10.98;7.65;;;;;;;-4.14;100.00;96483.47;5011440;28;24989;-73
2021/11/24 03:36:46;;;;;;;10.70;6.90;;;;;;;-4.23;100.00;96483.41;5011039;28;24791;-74
2021/11/24 03:39:13;;;;;;;10.40;7.20;;;;;;;-4.18;100.00;96480.94;5010967;28;25004;-73
2021/11/24 03:41:39;;;;;;;11.40;7.22;;;;;;;-4.12;100.00;96473.34;5011102;28;24482;-74
2021/11/24 03:44:06;;;;;;;7.47;6.63;;;;;;;-4.06;100.00;96472.56;5011145;28;25004;-73
2021/11/24 03:46:34;;;;;;;10.57;6.80;;;;;;;-4.06;100.00;96467.50;5011289;28;24974;-74
2021/11/24 03:49:00;;;;;;;8.55;6.60;;;;;;;-4.10;100.00;96470.84;5003005;28;24431;-74
2021/11/24 03:51:26;;;;;;;9.23;6.43;;;;;;;-4.13;100.00;96474.19;5010985;28;24427;-74
2021/11/24 03:53:53;;;;;;;9.57;6.15;;;;;;;-4.29;100.00;96472.44;5010993;28;24755;-73
2021/11/24 03:56:19;;;;;;;7.97;6.35;;;;;;;-4.25;100.00;96471.59;5010813;28;24428;-73
2021/11/24 03:58:46;;;;;;;10.48;6.05;;;;;;;-4.18;100.00;96475.88;5010955;28;24475;-74
2021/11/24 04:01:13;;;;;;;17.45;6.20;;;;;;;-4.13;100.00;96474.19;5011152;28;24432;-74
2021/11/24 04:03:40;;;;;;;8.50;6.13;;;;;;;-4.15;100.00;96468.31;5010897;28;24439;-74
2021/11/24 04:06:07;;;;;;;8.55;6.20;;;;;;;-4.14;100.00;96475.03;5010373;28;24433;-74
2021/11/24 04:08:33;;;;;;;7.05;5.85;;;;;;;-4.28;100.00;96471.56;5010933;28;24443;-73
2021/11/24 04:11:00;;;;;;;7.38;5.93;;;;;;;-4.19;100.00;96472.50;5011009;28;24427;-73
2021/11/24 04:13:26;;;;;;;10.80;6.70;;;;;;;-4.16;100.00;96466.59;5010757;28;24428;-74
2021/11/24 04:15:53;;;;;;;9.75;6.40;;;;;;;-4.23;100.00;96468.22;5010572;28;24420;-74
2021/11/24 04:18:19;;;;;;;8.63;6.38;;;;;;;-4.20;100.00;96472.47;5010688;28;24429;-74
2021/11/24 04:20:47;;;;;;;9.00;6.00;;;;;;;-4.27;100.00;96461.47;5010655;28;24428;-73
2021/11/24 04:23:14;;;;;;;9.88;6.05;;;;;;;-4.28;100.00;96461.47;5010791;28;24424;-74
2021/11/24 04:25:40;;;;;;;7.72;5.60;;;;;;;-4.24;100.00;96465.69;5010556;28;24432;-73
2021/11/24 04:28:07;;;;;;;8.00;6.13;;;;;;;-4.24;100.00;96460.63;5010697;28;24790;-74
2021/11/24 04:30:33;;;;;;;7.93;5.70;;;;;;;-4.27;100.00;96456.41;5010811;28;24409;-74
2021/11/24 04:33:00;;;;;;;8.60;5.90;;;;;;;-4.22;100.00;96448.88;5010824;28;24960;-74
2021/11/24 04:35:26;;;;;;;6.90;6.05;;;;;;;-4.27;100.00;96445.44;5010815;28;24964;-73
2021/11/24 04:37:54;;;;;;;8.33;6.27;;;;;;;-4.32;100.00;96453.00;5010414;28;25069;-74
2021/11/24 04:40:21;;;;;;;7.95;5.97;;;;;;;-4.34;100.00;96444.56;5010562;28;24472;-74
2021/11/24 04:42:48;;;;;;;10.68;6.80;;;;;;;-4.32;100.00;96447.94;5010322;28;24420;-73
2021/11/24 04:45:15;;;;;;;13.45;7.43;;;;;;;-4.31;100.00;96457.22;5010431;28;24426;-74
2021/11/24 04:47:42;;;;;;;10.13;7.53;;;;;;;-4.35;100.00;96450.47;5010625;28;24519;-73
2021/11/24 04:50:09;;;;;;;8.13;6.22;;;;;;;-4.43;100.00;96444.50;5010344;28;24424;-74
2021/11/24 04:52:36;;;;;;;11.17;7.40;;;;;;;-4.40;100.00;96442.84;5010660;28;24422;-74
2021/11/24 04:55:04;;;;;;;8.50;6.53;;;;;;;-4.39;100.00;96442.00;5010243;28;24429;-74
2021/11/24 04:57:31;;;;;;;12.00;7.55;;;;;;;-4.48;100.00;96444.50;5010498;28;24424;-73
2021/11/24 04:59:57;;;;;;;10.50;7.65;;;;;;;-4.49;100.00;96442.78;5010455;28;24447;-73
2021/11/24 05:02:24;;;;;;;12.52;7.75;;;;;;;-4.35;100.00;96445.41;5010458;28;24436;-73
2021/11/24 05:04:50;;;;;;;11.85;7.85;;;;;;;-4.41;100.00;96440.31;5010220;28;24428;-74
2021/11/24 05:07:18;;;;;;;21.40;11.00;;;;;;;-4.51;100.00;96431.00;5010134;28;24427;-74
2021/11/24 05:09:44;;;;;;;24.52;10.30;;;;;;;-4.53;100.00;96438.53;5010433;28;24428;-74
2021/11/24 05:12:12;;;;;;;11.93;8.55;;;;;;;-4.50;100.00;96435.19;5010348;28;24433;-74
2021/11/24 05:14:40;;;;;;;13.75;9.27;;;;;;;-4.54;100.00;96431.81;5010381;28;24496;-74
2021/11/24 05:17:12;;;;;;;15.52;9.07;;;;;;;-4.64;100.00;96437.63;5011931;28;24424;-73
2021/11/24 05:19:42;;;;;;;16.38;8.85;;;;;;;-4.63;100.00;96432.59;5014025;28;24466;-74
2021/11/24 05:22:09;;;;;;;13.95;8.35;;;;;;;-4.49;100.00;96440.25;5014178;28;24425;-74
2021/11/24 05:24:36;;;;;;;15.23;8.50;;;;;;;-4.36;100.00;96431.06;5013783;28;24420;-73
2021/11/24 05:27:03;;;;;;;10.68;6.85;;;;;;;-4.23;100.00;96429.44;5013578;28;24977;-74
2021/11/24 05:29:30;;;;;;;9.57;6.80;;;;;;;-4.25;100.00;96429.44;5013552;28;24424;-73
2021/11/24 05:31:57;;;;;;;13.77;7.43;;;;;;;-4.11;100.00;96431.22;5013476;28;24474;-72
2021/11/24 05:34:24;;;;;;;15.10;7.32;;;;;;;-4.00;100.00;96432.97;5013373;28;24423;-72
2021/11/24 05:36:50;;;;;;;10.10;6.53;;;;;;;-4.03;100.00;96429.56;5013084;28;24798;-72
2021/11/24 05:39:17;;;;;;;10.45;7.30;;;;;;;-4.08;100.00;96431.22;5013709;28;24447;-73
2021/11/24 05:41:43;;;;;;;9.00;6.82;;;;;;;-4.02;100.00;96432.09;5013505;28;24471;-73
2021/11/24 05:44:21;;;;;;;11.67;7.13;;;;;;;-4.16;100.00;96416.84;5013375;28;24452;-73
2021/11/24 05:46:52;;;;;;;8.48;6.90;;;;;;;-3.70;100.00;96416.19;5013216;28;24464;-73
2021/11/24 05:49:19;;;;;;;13.15;8.32;;;;;;;-3.85;100.00;96414.47;5013419;28;24799;-73
2021/11/24 05:51:46;;;;;;;11.77;7.95;;;;;;;-3.95;100.00;96416.09;5013496;28;24424;-74
2021/11/24 05:54:12;;;;;;;12.90;7.88;;;;;;;-3.84;100.00;96407.72;5001062;28;24440;-72
2021/11/24 05:56:39;;;;;;;11.52;8.55;;;;;;;-4.04;100.00;96408.47;5012614;28;24463;-73
2021/11/24 05:59:08;;;;;;;15.43;8.63;;;;;;;-3.74;100.00;96409.44;5012831;28;24452;-73
2021/11/24 06:01:35;;;;;;;12.27;8.60;;;;;;;-3.80;100.00;96400.13;5013508;28;24787;-73
2021/11/24 06:04:03;;;;;;;13.85;8.05;;;;;;;-3.99;100.00;96405.97;5013183;28;24436;-73
2021/11/24 06:06:29;;;;;;;9.03;7.67;;;;;;;-3.97;100.00;96410.19;5012799;28;24436;-73
2021/11/24 06:08:56;;;;;;;10.38;7.60;;;;;;;-3.85;100.00;96409.41;5013167;28;24420;-73
2021/11/24 06:11:22;;;;;;;10.57;7.72;;;;;;;-3.78;100.00;96400.97;5013236;28;24440;-73
2021/11/24 06:13:49;;;;;;;10.40;7.88;;;;;;;-3.73;100.00;96394.25;5013179;28;24424;-73
2021/11/24 06:16:16;;;;;;;10.07;7.93;;;;;;;-3.59;100.00;96395.97;5012653;28;24435;-72
2021/11/24 06:18:43;;;;;;;8.18;6.93;;;;;;;-3.53;100.00;96396.81;5013464;28;24424;-73
2021/11/24 06:21:11;;;;;;;9.75;6.70;;;;;;;-3.59;100.00;96398.50;5013008;28;24451;-73
2021/11/24 06:23:39;;;;;;;10.13;6.63;;;;;;;-3.60;100.00;96392.56;5007870;28;24463;-72
2021/11/24 06:26:06;;;;;;;9.23;7.28;;;;;;;-3.61;100.00;96408.59;5012174;28;24532;-72
2021/11/24 06:28:32;;;;;;;8.97;6.77;;;;;;;-3.63;100.00;96406.91;5012274;28;24444;-71
2021/11/24 06:30:59;;;;;;;8.75;6.85;;;;;;;-3.71;100.00;96405.22;5012916;28;24415;-71
2021/11/24 06:33:26;;;;;;;13.35;8.90;;;;;;;-3.72;100.00;96405.22;5012780;28;24439;-71
2021/11/24 06:35:53;;;;;;;15.55;8.68;;;;;;;-3.65;100.00;96396.78;5012106;28;24988;-73
2021/11/24 06:38:21;;;;;;;10.55;7.78;;;;;;;-3.52;100.00;96398.53;5012441;28;24432;-74
2021/11/24 06:40:48;;;;;;;11.50;8.25;;;;;;;-3.54;100.00;96402.72;5011996;28;24444;-72
2021/11/24 06:43:15;;;;;;;11.77;7.95;;;;;;;-3.52;100.00;96398.53;5012307;28;24416;-73
2021/11/24 06:45:42;;;;;;;29.40;15.85;;;;;;;-3.61;100.00;96392.56;5011867;28;24428;-72
2021/11/24 06:48:08;;;;;;;22.52;16.98;;;;;;;-3.51;100.00;96396.81;5011716;28;24540;-73
2021/11/24 06:50:35;;;;;;;22.92;14.52;;;;;;;-3.45;100.00;96391.75;5012302;28;24421;-74
2021/11/24 06:53:01;;;;;;;18.38;12.68;;;;;;;-3.45;100.00;96389.22;5011804;28;24990;-72
2021/11/24 06:55:29;;;;;;;16.95;11.70;;;;;;;-3.44;100.00;96393.47;5012271;28;24447;-73
2021/11/24 06:57:56;;;;;;;21.80;14.27;;;;;;;-3.42;100.00;96385.00;5012346;28;24420;-74
2021/11/24 07:00:24;;;;;;;17.33;10.45;;;;;;;-3.26;100.00;96380.84;5012398;28;24448;-74
2021/11/24 07:02:50;;;;;;;17.73;13.05;;;;;;;-3.34;100.00;96385.00;5012184;28;24839;-72
2021/11/24 07:05:17;;;;;;;17.92;10.85;;;;;;;-3.39;100.00;96378.28;5011015;28;24432;-71
2021/11/24 07:07:43;;;;;;;14.77;9.95;;;;;;;-3.49;100.00;96382.47;5011668;28;24427;-72
2021/11/24 07:10:10;;;;;;;14.25;9.63;;;;;;;-3.31;100.00;96377.44;5011863;28;24800;-72
2021/11/24 07:12:38;;;;;;;12.90;9.35;;;;;;;-3.43;100.00;96378.25;5012019;28;24412;-72
2021/11/24 07:15:06;;;;;;;10.80;8.50;;;;;;;-3.39;100.00;96373.22;5011455;28;24988;-72
2021/11/24 07:17:32;;;;;;;9.50;7.53;;;;;;;-3.38;100.00;96380.78;5011581;28;24424;-72
2021/11/24 07:20:01;;;;;;;7.65;6.53;;;;;;;-3.35;100.00;96385.88;5011344;28;24447;-72
2021/11/24 07:22:27;;;;;;;8.18;6.53;;;;;;;-3.31;100.00;96385.03;5011328;28;24447;-72
2021/11/24 07:24:53;;;;;;;6.25;5.50;;;;;;;-3.25;100.00;96392.66;5011429;28;24427;-71
2021/11/24 07:27:20;;;;;;;9.55;6.93;;;;;;;-3.19;100.00;96391.78;5011527;28;24432;-71
2021/11/24 07:29:48;;;;;;;12.50;9.85;;;;;;;-3.24;100.00;96385.88;5011241;28;24970;-71
2021/11/24 07:32:15;;;;;;;15.57;10.88;;;;;;;-3.03;100.00;96390.97;5011384;28;24519;-71
2021/11/24 07:34:41;;;;;;;9.93;7.70;;;;;;;-2.90;100.00;96393.50;5011389;28;24421;-71
2021/11/24 07:37:08;;;;;;;10.25;7.93;;;;;;;-2.73;100.00;96394.34;5011109;28;24567;-71
2021/11/24 07:39:34;;;;;;;11.00;7.95;;;;;;;-2.59;100.00;96395.16;5010541;28;24471;-71
2021/11/24 07:42:01;;;;;;;10.63;8.95;;;;;;;-2.44;100.00;96385.00;5011180;28;24783;-72
2021/11/24 07:44:27;;;;;;;10.13;8.75;;;;;;;-2.28;100.00;96395.09;5011122;28;24946;-72
2021/11/24 07:46:55;;;;;;;15.35;8.65;;;;;;;-2.06;100.00;96391.63;5010692;28;24431;-66
2021/11/24 07:49:22;;;;;;;14.35;9.18;;;;;;;-1.99;100.00;96387.38;5004257;28;24863;-73
2021/11/24 07:51:48;;;;;;;14.68;10.32;;;;;;;-1.91;100.00;96383.13;4991563;28;24428;-73
2021/11/24 07:54:15;;;;;;;16.00;11.68;;;;;;;-1.91;100.00;96382.28;5008998;28;24477;-73
2021/11/24 07:56:41;;;;;;;37.95;27.13;;;;;;;-1.89;100.00;96383.09;5010778;28;24424;-73
2021/11/24 07:59:08;;;;;;;23.88;18.42;;;;;;;-2.16;100.00;96384.91;5010971;28;24424;-74
2021/11/24 08:01:34;;;;;;;18.08;12.68;;;;;;;-2.11;100.00;96379.78;5010978;28;24518;-72
2021/11/24 08:04:02;;;;;;;15.77;11.95;;;;;;;-1.98;100.00;96381.44;5010864;28;24969;-73
2021/11/24 08:06:29;;;;;;;13.80;10.13;;;;;;;-1.86;100.00;96375.47;5010789;28;24431;-73
2021/11/24 08:08:55;;;;;;;12.88;9.27;;;;;;;-1.73;100.00;96382.19;5011106;28;24420;-72
2021/11/24 08:11:23;;;;;;;13.30;9.68;;;;;;;-1.66;100.00;96372.84;5011028;28;24418;-72
2021/11/24 08:13:49;;;;;;;12.15;9.35;;;;;;;-1.55;100.00;96368.56;5010981;28;24486;-73
2021/11/24 08:16:16;;;;;;;12.03;9.30;;;;;;;-1.52;100.00;96366.84;5010628;28;24481;-73
2021/11/24 08:18:42;;;;;;;18.27;10.65;;;;;;;-1.56;100.00;96367.72;5010706;28;24903;-71
2021/11/24 08:21:10;;;;;;;12.63;10.15;;;;;;;-1.56;100.00;96356.69;5010869;28;24476;-73
2021/11/24 08:23:37;;;;;;;12.77;10.05;;;;;;;-1.51;100.00;96354.97;4997934;28;24440;-73
2021/11/24 08:26:04;;;;;;;12.82;10.38;;;;;;;-1.49;100.00;96358.34;4991018;28;24425;-73
2021/11/24 08:28:30;;;;;;;14.10;10.07;;;;;;;-1.40;100.00;96360.84;4991321;28;24686;-72
2021/11/24 08:30:57;;;;;;;18.38;12.27;;;;;;;-1.46;100.00;96359.16;4991046;28;24425;-72
2021/11/24 08:33:23;;;;;;;18.70;12.15;;;;;;;-1.31;100.00;96353.13;4991021;28;24973;-73
2021/11/24 08:35:50;;;;;;;31.35;13.40;;;;;;;-1.28;100.00;96362.44;4991145;28;24803;-73
2021/11/24 08:38:18;;;;;;;30.73;16.02;;;;;;;-1.19;100.00;96351.34;4991159;28;24429;-72
2021/11/24 08:40:45;;;;;;;28.95;15.95;;;;;;;-1.25;100.00;96352.25;4990899;28;24448;-72
2021/11/24 08:43:11;;;;;;;31.30;15.73;;;;;;;-1.14;100.00;96340.31;4990943;28;24424;-72
2021/11/24 08:45:38;;;;;;;22.33;14.57;;;;;;;-0.92;100.00;96337.59;4990597;28;24425;-73
2021/11/24 08:48:05;;;;;;;26.38;15.32;;;;;;;-0.70;100.00;96333.13;4991257;28;24448;-73
2021/11/24 08:50:32;;;;;;;24.17;13.57;;;;;;;-0.33;100.00;96331.91;4992351;28;24417;-73
2021/11/24 08:52:59;;;;;;;24.03;13.83;;;;;;;-0.03;100.00;96320.50;4994513;28;24436;-73
2021/11/24 08:55:27;;;;;;;18.80;13.95;;;;;;;0.16;100.00;96318.56;4994634;28;24495;-72
2021/11/24 08:57:54;;;;;;;19.20;14.17;;;;;;;0.55;100.00;96320.56;5000564;28;24467;-72
2021/11/24 09:00:23;;;;;;;17.33;14.43;;;;;;;0.76;100.00;96321.97;5014244;28;25032;-72
2021/11/24 09:02:50;;;;;;;20.63;14.05;;;;;;;0.80;100.00;96315.94;5014281;28;25074;-73
2021/11/24 09:05:18;;;;;;;29.92;16.52;;;;;;;0.71;100.00;96314.41;5014067;28;24786;-74
2021/11/24 09:07:46;;;;;;;23.57;15.03;;;;;;;0.88;100.00;96309.00;5014230;28;24559;-74
2021/11/24 09:10:14;;;;;;;18.37;14.90;;;;;;;1.21;100.00;96310.16;5014300;28;24426;-74
2021/11/24 09:12:42;;;;;;;19.55;15.02;;;;;;;1.27;100.00;96306.66;5014118;28;24423;-74
2021/11/24 09:15:09;;;;;;;16.30;14.57;;;;;;;1.19;100.00;96307.66;5013609;28;24428;-74
2021/11/24 09:17:35;;;;;;;17.70;14.85;;;;;;;1.28;100.00;96309.19;5014159;28;24420;-73
2021/11/24 09:20:02;;;;;;;17.08;14.38;;;;;;;1.48;100.00;96310.53;5013933;28;24419;-73
2021/11/24 09:22:29;;;;;;;20.10;14.15;;;;;;;1.38;100.00;96309.88;5013709;28;24425;-73
2021/11/24 09:24:57;;;;;;;20.90;14.55;;;;;;;1.50;100.00;96301.13;5013563;28;24428;-73
2021/11/24 09:27:30;;;;;;;17.27;15.05;;;;;;;1.50;100.00;96299.41;5013670;28;24969;-74
2021/11/24 09:30:00;;;;;;;17.27;15.13;;;;;;;1.40;100.00;96308.94;5013591;28;24435;-74
2021/11/24 09:32:28;;;;;;;17.67;15.75;;;;;;;1.13;100.00;96299.25;5013948;28;24435;-74
2021/11/24 09:34:55;;;;;;;22.00;17.05;;;;;;;1.11;100.00;96294.19;5014026;28;24435;-74
2021/11/24 09:37:21;;;;;;;19.17;17.00;;;;;;;1.23;100.00;96285.47;5013647;28;24485;-74
2021/11/24 09:39:48;;;;;;;23.50;18.35;;;;;;;1.33;100.00;96292.06;5013437;28;24814;-74
2021/11/24 09:42:15;;;;;;;20.40;18.15;;;;;;;1.41;100.00;96289.41;5013623;28;24448;-74
2021/11/24 09:44:46;;;;;;;22.40;17.70;;;;;;;1.62;100.00;96275.38;5014248;28;24654;-75
2021/11/24 09:47:14;;;;;;;20.07;17.93;;;;;;;1.70;100.00;96279.44;5013414;28;24455;-74
2021/11/24 09:49:45;;;;;;;19.30;17.17;;;;;;;1.87;100.00;96275.72;5013546;28;24451;-74
2021/11/24 09:52:12;;;;;;;20.05;17.83;;;;;;;1.98;100.00;96263.56;5011826;28;24420;-75
2021/11/24 09:54:40;;;;;;;22.08;18.38;;;;;;;2.13;100.00;96262.41;4994029;28;24427;-75
2021/11/24 09:57:07;;;;;;;20.40;17.48;;;;;;;2.04;100.00;96258.34;4993387;28;24433;-74
2021/11/24 09:59:33;;;;;;;19.98;17.45;;;;;;;2.06;100.00;96259.13;4994011;28;24428;-75
2021/11/24 10:02:00;;;;;;;19.30;17.13;;;;;;;2.01;100.00;96244.78;4992911;28;24517;-74
2021/11/24 10:04:28;;;;;;;27.05;18.80;;;;;;;1.85;100.00;96242.53;4993619;28;24421;-73
2021/11/24 10:06:55;;;;;;;19.92;17.92;;;;;;;1.70;100.00;96242.84;4993338;28;24961;-74
2021/11/24 10:09:21;;;;;;;20.13;17.95;;;;;;;1.60;100.00;96241.38;4993700;28;24421;-74
2021/11/24 10:11:48;;;;;;;21.02;18.80;;;;;;;1.58;100.00;96233.72;4993407;28;24979;-73
2021/11/24 10:14:15;;;;;;;21.20;18.45;;;;;;;1.40;100.00;96224.72;4993233;28;24966;-74
2021/11/24 10:16:41;;;;;;;25.70;18.83;;;;;;;1.62;100.00;96217.47;4992992;28;24429;-74
2021/11/24 10:19:10;;;;;;;24.65;18.77;;;;;;;1.69;100.00;96219.03;4993277;28;24424;-74
2021/11/24 10:21:55;;;;;;;22.90;18.55;;;;;;;1.69;100.00;96216.47;4993526;28;24460;-75
2021/11/24 10:24:28;;;;;;;21.25;18.85;;;;;;;1.83;100.00;96207.69;5011703;28;25036;-74
2021/11/24 10:26:55;;;;;;;23.37;18.77;;;;;;;1.95;100.00;96209.97;5012716;28;24946;-74
2021/11/24 10:29:21;;;;;;;26.50;20.08;;;;;;;1.92;100.00;96200.66;5012511;28;24424;-74
2021/11/24 10:31:51;;;;;;;28.02;18.98;;;;;;;1.99;100.00;96203.94;5012444;28;24957;-74
2021/11/24 10:34:20;;;;;;;26.33;19.73;;;;;;;2.18;100.00;96194.97;5013439;28;24466;-74
2021/11/24 10:37:02;;;;;;;23.92;20.40;;;;;;;2.34;100.00;96190.34;5012513;28;24451;-74
2021/11/24 10:39:30;;;;;;;24.20;19.92;;;;;;;2.59;100.00;96195.69;5013062;28;24424;-75
2021/11/24 10:42:04;;;;;;;21.27;18.90;;;;;;;2.64;100.00;96181.09;5012684;28;24440;-75
2021/11/24 10:44:33;;;;;;;22.88;19.83;;;;;;;2.80;100.00;96178.97;5012627;28;24428;-74
2021/11/24 10:47:00;;;;;;;23.42;19.35;;;;;;;3.03;100.00;96180.94;5012729;28;24522;-75
2021/11/24 10:49:32;;;;;;;24.85;18.75;;;;;;;3.17;100.00;96172.06;5012629;28;24775;-74
2021/11/24 10:52:12;;;;;;;20.25;18.13;;;;;;;2.92;100.00;96163.31;5012900;28;24411;-74
2021/11/24 10:54:39;;;;;;;21.58;18.48;;;;;;;2.83;100.00;96168.69;4992547;28;24432;-74
2021/11/24 10:57:08;;;;;;;20.55;18.35;;;;;;;2.67;100.00;96165.69;4992906;28;24425;-74
2021/11/24 10:59:37;;;;;;;22.98;18.70;;;;;;;2.42;100.00;96168.00;4993218;28;24432;-73
2021/11/24 11:02:32;;;;;;;23.52;18.60;;;;;;;2.46;100.00;96157.72;4992717;28;24476;-75
2021/11/24 11:05:27;;;;;;;35.70;21.67;;;;;;;2.37;100.00;96145.97;4957778;28;24843;-74
2021/11/24 11:08:03;;;;;;;27.50;19.50;;;;;;;2.45;100.00;96143.22;4986486;28;24460;-74
2021/11/24 11:10:32;;;;;;;27.20;22.48;;;;;;;2.50;100.00;96149.06;4992275;28;24978;-74
2021/11/24 11:13:00;;;;;;;23.90;19.90;;;;;;;2.64;100.00;96134.22;4991851;28;24532;-74
2021/11/24 11:15:30;;;;;;;23.27;19.30;;;;;;;2.72;100.00;96134.03;4990924;28;24424;-74
2021/11/24 11:18:10;;;;;;;25.02;20.15;;;;;;;2.66;100.00;96140.13;4991835;28;24977;-74